sensor_id;sensor_type;location;lat;lon;timestamp;P1;durP1;ratioP1;P2;durP2;ratioP2
58774;SDS011;44545;47.480;19.024;2023-05-24T03:12:29;4.22;;;2.25;;
58774;SDS011;44545;47.480;19.024;2023-05-24T03:15:32;5.32;;;2.95;;
58774;SDS011;44545;47.480;19.024;2023-05-24T03:18:35;3.78;;;2.15;;
58774;SDS011;44545;47.480;19.024;2023-05-24T03:21:38;3.53;;;2.03;;
58774;SDS011;44545;47.480;19.024;2023-05-24T03:24:40;4.53;;;1.87;;
58774;SDS011;44545;47.480;19.024;2023-05-24T03:27:45;4.55;;;2.10;;
58774;SDS011;44545;47.480;19.024;2023-05-24T03:30:47;4.57;;;2.47;;
58774;SDS011;44545;47.480;19.024;2023-05-24T03:33:50;5.70;;;2.78;;
58774;SDS011;44545;47.480;19.024;2023-05-24T03:36:53;5.03;;;2.62;;
58774;SDS011;44545;47.480;19.024;2023-05-24T03:39:56;4.57;;;2.20;;
58774;SDS011;44545;47.480;19.024;2023-05-24T03:42:59;3.62;;;2.00;;
58774;SDS011;44545;47.480;19.024;2023-05-24T03:46:02;4.57;;;2.40;;
58774;SDS011;44545;47.480;19.024;2023-05-24T03:49:05;4.18;;;2.60;;
58774;SDS011;44545;47.480;19.024;2023-05-24T03:52:10;4.57;;;2.57;;
58774;SDS011;44545;47.480;19.024;2023-05-24T03:55:12;4.43;;;2.95;;
58774;SDS011;44545;47.480;19.024;2023-05-24T03:58:16;6.55;;;3.08;;
58774;SDS011;44545;47.480;19.024;2023-05-24T04:01:18;8.18;;;3.15;;
58774;SDS011;44545;47.480;19.024;2023-05-24T04:04:35;4.78;;;2.87;;
58774;SDS011;44545;47.480;19.024;2023-05-24T04:07:40;7.25;;;3.72;;
58774;SDS011;44545;47.480;19.024;2023-05-24T04:10:43;6.55;;;3.42;;
58774;SDS011;44545;47.480;19.024;2023-05-24T04:13:46;9.40;;;3.05;;
58774;SDS011;44545;47.480;19.024;2023-05-24T04:16:48;7.35;;;3.10;;
58774;SDS011;44545;47.480;19.024;2023-05-24T04:19:53;5.10;;;2.92;;
58774;SDS011;44545;47.480;19.024;2023-05-24T04:22:55;6.07;;;3.22;;
58774;SDS011;44545;47.480;19.024;2023-05-24T04:25:57;4.53;;;2.85;;
58774;SDS011;44545;47.480;19.024;2023-05-24T04:29:00;4.68;;;2.72;;
58774;SDS011;44545;47.480;19.024;2023-05-24T04:32:03;7.68;;;3.60;;
58774;SDS011;44545;47.480;19.024;2023-05-24T04:35:06;8.27;;;3.92;;
58774;SDS011;44545;47.480;19.024;2023-05-24T04:38:09;9.35;;;3.85;;
58774;SDS011;44545;47.480;19.024;2023-05-24T04:41:13;7.37;;;3.47;;
58774;SDS011;44545;47.480;19.024;2023-05-24T04:44:16;7.65;;;4.50;;
58774;SDS011;44545;47.480;19.024;2023-05-24T04:47:18;5.87;;;3.40;;
58774;SDS011;44545;47.480;19.024;2023-05-24T04:50:20;9.32;;;4.75;;
58774;SDS011;44545;47.480;19.024;2023-05-24T04:53:23;7.50;;;3.62;;
58774;SDS011;44545;47.480;19.024;2023-05-24T04:56:25;6.62;;;3.90;;
58774;SDS011;44545;47.480;19.024;2023-05-24T04:59:28;7.47;;;4.53;;
58774;SDS011;44545;47.480;19.024;2023-05-24T05:02:31;5.30;;;3.15;;
58774;SDS011;44545;47.480;19.024;2023-05-24T05:05:34;6.87;;;3.83;;
58774;SDS011;44545;47.480;19.024;2023-05-24T05:08:39;11.85;;;4.28;;
58774;SDS011;44545;47.480;19.024;2023-05-24T05:11:47;6.55;;;3.70;;
58774;SDS011;44545;47.480;19.024;2023-05-24T05:14:49;7.28;;;3.92;;
58774;SDS011;44545;47.480;19.024;2023-05-24T05:17:51;9.23;;;4.57;;
58774;SDS011;44545;47.480;19.024;2023-05-24T05:20:55;7.97;;;4.20;;
58774;SDS011;44545;47.480;19.024;2023-05-24T05:23:58;8.75;;;4.37;;
58774;SDS011;44545;47.480;19.024;2023-05-24T05:27:05;6.53;;;4.07;;
58774;SDS011;44545;47.480;19.024;2023-05-24T05:30:07;9.82;;;5.30;;
58774;SDS011;44545;47.480;19.024;2023-05-24T05:33:10;7.95;;;4.22;;
58774;SDS011;44545;47.480;19.024;2023-05-24T05:36:14;8.13;;;4.50;;
58774;SDS011;44545;47.480;19.024;2023-05-24T05:39:16;8.30;;;3.90;;
58774;SDS011;44545;47.480;19.024;2023-05-24T05:42:19;7.68;;;3.85;;
58774;SDS011;44545;47.480;19.024;2023-05-24T05:45:21;7.07;;;4.35;;
58774;SDS011;44545;47.480;19.024;2023-05-24T05:48:24;9.43;;;4.62;;
58774;SDS011;44545;47.480;19.024;2023-05-24T05:51:27;6.40;;;4.20;;
58774;SDS011;44545;47.480;19.024;2023-05-24T05:54:29;9.15;;;5.18;;
58774;SDS011;44545;47.480;19.024;2023-05-24T05:57:32;6.97;;;4.15;;
58774;SDS011;44545;47.480;19.024;2023-05-24T06:00:34;7.07;;;4.03;;
58774;SDS011;44545;47.480;19.024;2023-05-24T06:03:37;7.60;;;3.60;;
58774;SDS011;44545;47.480;19.024;2023-05-24T06:06:40;6.32;;;3.15;;
58774;SDS011;44545;47.480;19.024;2023-05-24T06:09:42;7.40;;;4.03;;
58774;SDS011;44545;47.480;19.024;2023-05-24T06:12:44;6.12;;;3.45;;
58774;SDS011;44545;47.480;19.024;2023-05-24T06:15:47;6.53;;;3.80;;
58774;SDS011;44545;47.480;19.024;2023-05-24T06:18:50;7.05;;;3.90;;
58774;SDS011;44545;47.480;19.024;2023-05-24T06:22:06;6.30;;;3.95;;
58774;SDS011;44545;47.480;19.024;2023-05-24T06:25:09;4.80;;;3.67;;
58774;SDS011;44545;47.480;19.024;2023-05-24T06:28:16;6.68;;;4.18;;
58774;SDS011;44545;47.480;19.024;2023-05-24T06:31:18;13.07;;;4.68;;
58774;SDS011;44545;47.480;19.024;2023-05-24T06:34:21;6.62;;;4.25;;
58774;SDS011;44545;47.480;19.024;2023-05-24T06:37:24;7.43;;;4.32;;
58774;SDS011;44545;47.480;19.024;2023-05-24T06:40:32;6.65;;;4.28;;
58774;SDS011;44545;47.480;19.024;2023-05-24T06:43:35;7.20;;;3.70;;
58774;SDS011;44545;47.480;19.024;2023-05-24T06:46:37;7.43;;;3.67;;
58774;SDS011;44545;47.480;19.024;2023-05-24T06:49:41;5.93;;;3.25;;
58774;SDS011;44545;47.480;19.024;2023-05-24T06:52:43;7.68;;;4.30;;
58774;SDS011;44545;47.480;19.024;2023-05-24T06:55:45;8.48;;;3.87;;
58774;SDS011;44545;47.480;19.024;2023-05-24T06:58:48;6.47;;;3.83;;
58774;SDS011;44545;47.480;19.024;2023-05-24T07:01:51;7.15;;;4.12;;
58774;SDS011;44545;47.480;19.024;2023-05-24T07:05:00;7.55;;;3.97;;
58774;SDS011;44545;47.480;19.024;2023-05-24T07:08:03;11.30;;;3.75;;
58774;SDS011;44545;47.480;19.024;2023-05-24T07:11:05;6.28;;;3.80;;
58774;SDS011;44545;47.480;19.024;2023-05-24T07:14:08;6.35;;;3.60;;
58774;SDS011;44545;47.480;19.024;2023-05-24T07:17:11;7.05;;;4.03;;
58774;SDS011;44545;47.480;19.024;2023-05-24T07:20:13;5.65;;;3.62;;
58774;SDS011;44545;47.480;19.024;2023-05-24T07:23:16;7.22;;;3.75;;
58774;SDS011;44545;47.480;19.024;2023-05-24T07:26:20;8.38;;;4.40;;
58774;SDS011;44545;47.480;19.024;2023-05-24T07:29:23;8.45;;;3.78;;
58774;SDS011;44545;47.480;19.024;2023-05-24T07:32:27;6.62;;;3.85;;
58774;SDS011;44545;47.480;19.024;2023-05-24T07:35:30;6.80;;;4.15;;
58774;SDS011;44545;47.480;19.024;2023-05-24T07:38:33;7.05;;;3.72;;
58774;SDS011;44545;47.480;19.024;2023-05-24T07:41:37;6.37;;;3.70;;
58774;SDS011;44545;47.480;19.024;2023-05-24T07:44:40;8.68;;;4.85;;
58774;SDS011;44545;47.480;19.024;2023-05-24T07:47:43;7.00;;;3.75;;
58774;SDS011;44545;47.480;19.024;2023-05-24T07:50:47;6.68;;;3.90;;
58774;SDS011;44545;47.480;19.024;2023-05-24T07:53:51;5.47;;;3.47;;
58774;SDS011;44545;47.480;19.024;2023-05-24T07:56:53;7.45;;;4.37;;
58774;SDS011;44545;47.480;19.024;2023-05-24T07:59:56;7.03;;;4.05;;
58774;SDS011;44545;47.480;19.024;2023-05-24T08:02:58;8.20;;;3.70;;
58774;SDS011;44545;47.480;19.024;2023-05-24T08:06:01;7.70;;;5.05;;
58774;SDS011;44545;47.480;19.024;2023-05-24T08:09:03;6.78;;;4.28;;
58774;SDS011;44545;47.480;19.024;2023-05-24T08:12:06;7.40;;;4.10;;
58774;SDS011;44545;47.480;19.024;2023-05-24T08:15:09;7.05;;;4.05;;
58774;SDS011;44545;47.480;19.024;2023-05-24T08:18:12;6.45;;;4.00;;
58774;SDS011;44545;47.480;19.024;2023-05-24T08:21:14;7.40;;;3.83;;
58774;SDS011;44545;47.480;19.024;2023-05-24T08:24:18;7.37;;;3.87;;
58774;SDS011;44545;47.480;19.024;2023-05-24T08:27:21;7.20;;;4.03;;
58774;SDS011;44545;47.480;19.024;2023-05-24T08:30:24;7.60;;;4.25;;
58774;SDS011;44545;47.480;19.024;2023-05-24T08:33:26;9.30;;;3.97;;
58774;SDS011;44545;47.480;19.024;2023-05-24T08:36:30;5.95;;;3.40;;
58774;SDS011;44545;47.480;19.024;2023-05-24T08:39:33;6.45;;;3.37;;
58774;SDS011;44545;47.480;19.024;2023-05-24T08:42:36;6.35;;;3.40;;
58774;SDS011;44545;47.480;19.024;2023-05-24T08:45:39;5.72;;;3.70;;
58774;SDS011;44545;47.480;19.024;2023-05-24T08:48:44;5.05;;;3.03;;
58774;SDS011;44545;47.480;19.024;2023-05-24T08:51:50;5.70;;;2.78;;
58774;SDS011;44545;47.480;19.024;2023-05-24T08:54:53;5.35;;;2.97;;
58774;SDS011;44545;47.480;19.024;2023-05-24T08:57:56;4.85;;;3.28;;
58774;SDS011;44545;47.480;19.024;2023-05-24T09:01:00;8.73;;;3.40;;
58774;SDS011;44545;47.480;19.024;2023-05-24T09:04:03;6.12;;;3.67;;
58774;SDS011;44545;47.480;19.024;2023-05-24T09:07:07;5.07;;;3.37;;
58774;SDS011;44545;47.480;19.024;2023-05-24T09:10:14;6.15;;;3.30;;
58774;SDS011;44545;47.480;19.024;2023-05-24T09:13:18;5.57;;;3.28;;
58774;SDS011;44545;47.480;19.024;2023-05-24T09:16:20;5.93;;;2.72;;
58774;SDS011;44545;47.480;19.024;2023-05-24T09:19:23;4.15;;;2.65;;
58774;SDS011;44545;47.480;19.024;2023-05-24T09:22:25;4.30;;;2.92;;
58774;SDS011;44545;47.480;19.024;2023-05-24T09:25:29;5.25;;;3.03;;
58774;SDS011;44545;47.480;19.024;2023-05-24T09:28:31;5.00;;;2.92;;
58774;SDS011;44545;47.480;19.024;2023-05-24T09:31:35;5.70;;;3.10;;
58774;SDS011;44545;47.480;19.024;2023-05-24T09:34:41;4.37;;;2.60;;
58774;SDS011;44545;47.480;19.024;2023-05-24T09:37:44;6.35;;;2.80;;
58774;SDS011;44545;47.480;19.024;2023-05-24T09:40:56;4.78;;;2.50;;
58774;SDS011;44545;47.480;19.024;2023-05-24T09:44:08;4.10;;;2.83;;
58774;SDS011;44545;47.480;19.024;2023-05-24T09:47:15;3.92;;;2.53;;
58774;SDS011;44545;47.480;19.024;2023-05-24T09:50:18;5.30;;;3.00;;
58774;SDS011;44545;47.480;19.024;2023-05-24T09:53:20;7.05;;;2.58;;
58774;SDS011;44545;47.480;19.024;2023-05-24T09:56:23;6.25;;;2.97;;
58774;SDS011;44545;47.480;19.024;2023-05-24T09:59:26;3.75;;;2.20;;
58774;SDS011;44545;47.480;19.024;2023-05-24T10:02:29;4.47;;;2.62;;
58774;SDS011;44545;47.480;19.024;2023-05-24T10:05:43;3.45;;;2.17;;
58774;SDS011;44545;47.480;19.024;2023-05-24T10:08:47;4.37;;;2.50;;
58774;SDS011;44545;47.480;19.024;2023-05-24T10:11:51;5.00;;;2.45;;
58774;SDS011;44545;47.480;19.024;2023-05-24T10:14:54;2.95;;;2.10;;
58774;SDS011;44545;47.480;19.024;2023-05-24T10:17:59;3.20;;;2.35;;
58774;SDS011;44545;47.480;19.024;2023-05-24T10:21:05;3.22;;;2.05;;
58774;SDS011;44545;47.480;19.024;2023-05-24T10:24:12;4.45;;;2.42;;
58774;SDS011;44545;47.480;19.024;2023-05-24T10:27:22;5.72;;;2.45;;
58774;SDS011;44545;47.480;19.024;2023-05-24T10:30:31;2.97;;;2.28;;
58774;SDS011;44545;47.480;19.024;2023-05-24T10:33:38;3.85;;;2.42;;
58774;SDS011;44545;47.480;19.024;2023-05-24T10:36:43;5.05;;;2.30;;
58774;SDS011;44545;47.480;19.024;2023-05-24T10:39:46;5.72;;;3.05;;
58774;SDS011;44545;47.480;19.024;2023-05-24T10:42:49;4.50;;;2.80;;
58774;SDS011;44545;47.480;19.024;2023-05-24T10:45:52;3.95;;;2.67;;
58774;SDS011;44545;47.480;19.024;2023-05-24T10:48:58;3.28;;;2.37;;
58774;SDS011;44545;47.480;19.024;2023-05-24T10:52:08;3.12;;;2.08;;
58774;SDS011;44545;47.480;19.024;2023-05-24T10:55:11;5.28;;;2.50;;
58774;SDS011;44545;47.480;19.024;2023-05-24T10:58:14;3.33;;;2.17;;
58774;SDS011;44545;47.480;19.024;2023-05-24T11:04:31;3.20;;;2.37;;
58774;SDS011;44545;47.480;19.024;2023-05-24T11:07:40;3.80;;;2.60;;
58774;SDS011;44545;47.480;19.024;2023-05-24T11:10:46;3.80;;;2.35;;
58774;SDS011;44545;47.480;19.024;2023-05-24T11:13:53;3.30;;;2.55;;
58774;SDS011;44545;47.480;19.024;2023-05-24T11:16:57;5.75;;;2.40;;
58774;SDS011;44545;47.480;19.024;2023-05-24T11:20:04;4.43;;;3.00;;
58774;SDS011;44545;47.480;19.024;2023-05-24T11:23:10;4.40;;;2.62;;
58774;SDS011;44545;47.480;19.024;2023-05-24T11:26:13;4.15;;;2.62;;
58774;SDS011;44545;47.480;19.024;2023-05-24T11:29:18;6.45;;;2.35;;
58774;SDS011;44545;47.480;19.024;2023-05-24T11:32:24;3.35;;;2.40;;
58774;SDS011;44545;47.480;19.024;2023-05-24T11:35:30;7.93;;;2.67;;
58774;SDS011;44545;47.480;19.024;2023-05-24T11:38:32;5.62;;;3.00;;
58774;SDS011;44545;47.480;19.024;2023-05-24T11:41:37;4.57;;;2.50;;
58774;SDS011;44545;47.480;19.024;2023-05-24T11:44:41;4.25;;;2.60;;
58774;SDS011;44545;47.480;19.024;2023-05-24T11:47:43;5.03;;;2.83;;
58774;SDS011;44545;47.480;19.024;2023-05-24T11:50:46;4.25;;;2.53;;
58774;SDS011;44545;47.480;19.024;2023-05-24T11:53:52;4.70;;;3.10;;
58774;SDS011;44545;47.480;19.024;2023-05-24T11:56:56;4.53;;;2.65;;
58774;SDS011;44545;47.480;19.024;2023-05-24T11:59:58;3.53;;;2.53;;
58774;SDS011;44545;47.480;19.024;2023-05-24T12:03:01;8.05;;;2.12;;
58774;SDS011;44545;47.480;19.024;2023-05-24T12:06:08;4.32;;;2.35;;
58774;SDS011;44545;47.480;19.024;2023-05-24T12:09:11;3.58;;;1.98;;
58774;SDS011;44545;47.480;19.024;2023-05-24T12:12:20;3.58;;;2.35;;
58774;SDS011;44545;47.480;19.024;2023-05-24T12:15:35;3.67;;;2.70;;
58774;SDS011;44545;47.480;19.024;2023-05-24T12:18:38;3.78;;;2.35;;
58774;SDS011;44545;47.480;19.024;2023-05-24T12:21:55;3.75;;;2.03;;
58774;SDS011;44545;47.480;19.024;2023-05-24T12:24:58;5.30;;;2.70;;
58774;SDS011;44545;47.480;19.024;2023-05-24T12:28:01;4.00;;;2.40;;
58774;SDS011;44545;47.480;19.024;2023-05-24T12:31:04;3.42;;;2.28;;
58774;SDS011;44545;47.480;19.024;2023-05-24T12:34:11;3.25;;;1.80;;
58774;SDS011;44545;47.480;19.024;2023-05-24T12:37:14;5.70;;;2.33;;
58774;SDS011;44545;47.480;19.024;2023-05-24T12:40:19;3.47;;;2.25;;
58774;SDS011;44545;47.480;19.024;2023-05-24T12:43:24;5.28;;;2.40;;
58774;SDS011;44545;47.480;19.024;2023-05-24T12:46:26;3.72;;;2.15;;
58774;SDS011;44545;47.480;19.024;2023-05-24T12:49:29;5.47;;;2.33;;
58774;SDS011;44545;47.480;19.024;2023-05-24T12:52:32;7.97;;;2.17;;
58774;SDS011;44545;47.480;19.024;2023-05-24T12:55:34;5.53;;;2.20;;
58774;SDS011;44545;47.480;19.024;2023-05-24T12:58:37;3.22;;;2.00;;
58774;SDS011;44545;47.480;19.024;2023-05-24T13:01:39;4.62;;;2.28;;
58774;SDS011;44545;47.480;19.024;2023-05-24T13:04:42;3.37;;;2.28;;
58774;SDS011;44545;47.480;19.024;2023-05-24T13:07:44;5.72;;;2.53;;
58774;SDS011;44545;47.480;19.024;2023-05-24T13:10:46;4.35;;;2.10;;
58774;SDS011;44545;47.480;19.024;2023-05-24T13:13:51;3.07;;;2.03;;
58774;SDS011;44545;47.480;19.024;2023-05-24T13:16:54;6.62;;;2.45;;
58774;SDS011;44545;47.480;19.024;2023-05-24T13:19:57;3.15;;;2.17;;
58774;SDS011;44545;47.480;19.024;2023-05-24T13:23:02;3.67;;;2.15;;
58774;SDS011;44545;47.480;19.024;2023-05-24T13:26:05;4.72;;;2.60;;
58774;SDS011;44545;47.480;19.024;2023-05-24T13:29:07;2.67;;;1.90;;
58774;SDS011;44545;47.480;19.024;2023-05-24T13:35:15;3.87;;;2.17;;
58774;SDS011;44545;47.480;19.024;2023-05-24T13:38:18;3.60;;;2.25;;
58774;SDS011;44545;47.480;19.024;2023-05-24T13:41:21;3.53;;;2.15;;
58774;SDS011;44545;47.480;19.024;2023-05-24T13:44:24;4.22;;;2.17;;
58774;SDS011;44545;47.480;19.024;2023-05-24T13:47:26;3.37;;;2.03;;
58774;SDS011;44545;47.480;19.024;2023-05-24T13:50:40;3.70;;;1.90;;
58774;SDS011;44545;47.480;19.024;2023-05-24T13:53:43;2.95;;;1.83;;
58774;SDS011;44545;47.480;19.024;2023-05-24T13:56:48;3.85;;;2.40;;
58774;SDS011;44545;47.480;19.024;2023-05-24T13:59:51;3.35;;;2.03;;
58774;SDS011;44545;47.480;19.024;2023-05-24T14:02:54;3.72;;;1.70;;
58774;SDS011;44545;47.480;19.024;2023-05-24T14:05:57;4.50;;;2.00;;
58774;SDS011;44545;47.480;19.024;2023-05-24T14:08:59;4.05;;;2.33;;
58774;SDS011;44545;47.480;19.024;2023-05-24T14:12:02;2.37;;;1.60;;
58774;SDS011;44545;47.480;19.024;2023-05-24T14:15:05;3.62;;;2.37;;
58774;SDS011;44545;47.480;19.024;2023-05-24T14:18:08;2.40;;;1.58;;
58774;SDS011;44545;47.480;19.024;2023-05-24T14:21:11;3.80;;;2.30;;
58774;SDS011;44545;47.480;19.024;2023-05-24T14:24:14;3.83;;;2.35;;
58774;SDS011;44545;47.480;19.024;2023-05-24T14:27:16;3.70;;;2.20;;
58774;SDS011;44545;47.480;19.024;2023-05-24T14:30:19;9.77;;;2.47;;
58774;SDS011;44545;47.480;19.024;2023-05-24T14:33:21;4.60;;;2.42;;
58774;SDS011;44545;47.480;19.024;2023-05-24T14:36:24;3.50;;;2.50;;
58774;SDS011;44545;47.480;19.024;2023-05-24T14:39:26;5.20;;;2.37;;
58774;SDS011;44545;47.480;19.024;2023-05-24T14:42:29;3.28;;;2.03;;
58774;SDS011;44545;47.480;19.024;2023-05-24T14:45:32;3.67;;;2.20;;
58774;SDS011;44545;47.480;19.024;2023-05-24T14:48:34;5.57;;;2.50;;
58774;SDS011;44545;47.480;19.024;2023-05-24T14:51:38;3.37;;;1.80;;
58774;SDS011;44545;47.480;19.024;2023-05-24T14:54:40;2.92;;;1.77;;
58774;SDS011;44545;47.480;19.024;2023-05-24T14:57:42;4.00;;;2.10;;
58774;SDS011;44545;47.480;19.024;2023-05-24T15:00:45;4.03;;;2.40;;
58774;SDS011;44545;47.480;19.024;2023-05-24T15:03:48;3.53;;;2.08;;
58774;SDS011;44545;47.480;19.024;2023-05-24T15:06:50;3.47;;;2.03;;
58774;SDS011;44545;47.480;19.024;2023-05-24T15:09:53;3.87;;;1.70;;
58774;SDS011;44545;47.480;19.024;2023-05-24T15:12:55;3.65;;;1.92;;
58774;SDS011;44545;47.480;19.024;2023-05-24T15:15:57;3.65;;;2.15;;
58774;SDS011;44545;47.480;19.024;2023-05-24T15:19:01;4.78;;;2.22;;
